sensor_id;sensor_type;location;lat;lon;timestamp;P1;durP1;ratioP1;P2;durP2;ratioP2
59127;SDS011;44912;52.754;5.994;2022-08-27T00:01:25;10.68;;;5.03;;
59127;SDS011;44912;52.754;5.994;2022-08-27T00:03:52;10.68;;;5.55;;
59127;SDS011;44912;52.754;5.994;2022-08-27T00:06:18;8.85;;;5.15;;
59127;SDS011;44912;52.754;5.994;2022-08-27T00:08:44;8.07;;;4.75;;
59127;SDS011;44912;52.754;5.994;2022-08-27T00:11:10;9.52;;;5.22;;
59127;SDS011;44912;52.754;5.994;2022-08-27T00:13:37;9.23;;;5.10;;
59127;SDS011;44912;52.754;5.994;2022-08-27T00:16:03;8.20;;;4.95;;
59127;SDS011;44912;52.754;5.994;2022-08-27T00:18:31;7.93;;;4.88;;
59127;SDS011;44912;52.754;5.994;2022-08-27T00:20:58;9.18;;;4.60;;
59127;SDS011;44912;52.754;5.994;2022-08-27T00:23:24;7.85;;;4.57;;
59127;SDS011;44912;52.754;5.994;2022-08-27T00:25:50;8.18;;;4.40;;
59127;SDS011;44912;52.754;5.994;2022-08-27T00:28:16;9.30;;;4.88;;
59127;SDS011;44912;52.754;5.994;2022-08-27T00:30:41;9.25;;;5.30;;
59127;SDS011;44912;52.754;5.994;2022-08-27T00:33:07;9.32;;;5.10;;
59127;SDS011;44912;52.754;5.994;2022-08-27T00:35:33;7.82;;;4.38;;
59127;SDS011;44912;52.754;5.994;2022-08-27T00:37:59;7.43;;;4.78;;
59127;SDS011;44912;52.754;5.994;2022-08-27T00:40:25;9.52;;;4.57;;
59127;SDS011;44912;52.754;5.994;2022-08-27T00:42:51;8.50;;;4.68;;
59127;SDS011;44912;52.754;5.994;2022-08-27T00:45:18;8.32;;;4.40;;
59127;SDS011;44912;52.754;5.994;2022-08-27T00:47:51;6.78;;;3.65;;
59127;SDS011;44912;52.754;5.994;2022-08-27T00:50:27;11.82;;;3.53;;
59127;SDS011;44912;52.754;5.994;2022-08-27T00:53:01;9.25;;;3.15;;
59127;SDS011;44912;52.754;5.994;2022-08-27T00:55:32;133.45;;;6.32;;
59127;SDS011;44912;52.754;5.994;2022-08-27T00:58:04;91.72;;;5.97;;
59127;SDS011;44912;52.754;5.994;2022-08-27T01:00:35;10.32;;;3.15;;
59127;SDS011;44912;52.754;5.994;2022-08-27T01:03:01;7.90;;;4.10;;
59127;SDS011;44912;52.754;5.994;2022-08-27T01:05:27;7.05;;;4.15;;
59127;SDS011;44912;52.754;5.994;2022-08-27T01:07:54;10.80;;;4.35;;
59127;SDS011;44912;52.754;5.994;2022-08-27T01:10:23;7.22;;;3.83;;
59127;SDS011;44912;52.754;5.994;2022-08-27T01:12:50;9.40;;;4.15;;
59127;SDS011;44912;52.754;5.994;2022-08-27T01:15:18;11.35;;;5.47;;
59127;SDS011;44912;52.754;5.994;2022-08-27T01:17:47;9.05;;;5.40;;
59127;SDS011;44912;52.754;5.994;2022-08-27T01:20:18;10.18;;;5.63;;
59127;SDS011;44912;52.754;5.994;2022-08-27T01:25:36;8.95;;;5.18;;
59127;SDS011;44912;52.754;5.994;2022-08-27T01:28:02;7.88;;;4.47;;
59127;SDS011;44912;52.754;5.994;2022-08-27T01:30:29;9.43;;;5.60;;
59127;SDS011;44912;52.754;5.994;2022-08-27T01:32:55;10.82;;;5.45;;
59127;SDS011;44912;52.754;5.994;2022-08-27T01:35:22;10.95;;;4.88;;
59127;SDS011;44912;52.754;5.994;2022-08-27T01:37:49;16.10;;;4.70;;
59127;SDS011;44912;52.754;5.994;2022-08-27T01:40:17;8.52;;;4.15;;
59127;SDS011;44912;52.754;5.994;2022-08-27T01:42:44;7.90;;;4.80;;
59127;SDS011;44912;52.754;5.994;2022-08-27T01:45:13;9.63;;;5.90;;
59127;SDS011;44912;52.754;5.994;2022-08-27T01:47:42;9.30;;;5.80;;
59127;SDS011;44912;52.754;5.994;2022-08-27T01:50:10;9.25;;;5.57;;
59127;SDS011;44912;52.754;5.994;2022-08-27T01:52:42;30.13;;;6.60;;
59127;SDS011;44912;52.754;5.994;2022-08-27T01:55:10;11.25;;;6.80;;
59127;SDS011;44912;52.754;5.994;2022-08-27T01:57:38;11.52;;;6.68;;
59127;SDS011;44912;52.754;5.994;2022-08-27T02:00:05;14.77;;;7.90;;
59127;SDS011;44912;52.754;5.994;2022-08-27T02:02:35;12.60;;;7.13;;
59127;SDS011;44912;52.754;5.994;2022-08-27T02:05:01;10.75;;;6.80;;
59127;SDS011;44912;52.754;5.994;2022-08-27T02:07:27;15.27;;;6.45;;
59127;SDS011;44912;52.754;5.994;2022-08-27T02:09:53;13.45;;;6.93;;
59127;SDS011;44912;52.754;5.994;2022-08-27T02:12:18;10.85;;;7.13;;
59127;SDS011;44912;52.754;5.994;2022-08-27T02:14:44;8.10;;;6.10;;
59127;SDS011;44912;52.754;5.994;2022-08-27T02:17:09;11.25;;;6.43;;
59127;SDS011;44912;52.754;5.994;2022-08-27T02:19:36;11.00;;;5.43;;
59127;SDS011;44912;52.754;5.994;2022-08-27T02:22:02;37.72;;;6.40;;
59127;SDS011;44912;52.754;5.994;2022-08-27T02:24:27;28.20;;;5.15;;
59127;SDS011;44912;52.754;5.994;2022-08-27T02:26:53;10.88;;;5.10;;
59127;SDS011;44912;52.754;5.994;2022-08-27T02:29:19;88.53;;;6.20;;
59127;SDS011;44912;52.754;5.994;2022-08-27T02:31:46;8.38;;;4.60;;
59127;SDS011;44912;52.754;5.994;2022-08-27T02:34:12;10.93;;;6.25;;
59127;SDS011;44912;52.754;5.994;2022-08-27T02:36:37;8.48;;;5.63;;
59127;SDS011;44912;52.754;5.994;2022-08-27T02:39:04;9.93;;;6.40;;
59127;SDS011;44912;52.754;5.994;2022-08-27T02:41:30;10.73;;;6.57;;
59127;SDS011;44912;52.754;5.994;2022-08-27T02:43:56;11.65;;;6.90;;
59127;SDS011;44912;52.754;5.994;2022-08-27T02:46:21;9.50;;;6.00;;
59127;SDS011;44912;52.754;5.994;2022-08-27T02:48:47;9.75;;;6.18;;
59127;SDS011;44912;52.754;5.994;2022-08-27T02:51:13;9.43;;;5.60;;
59127;SDS011;44912;52.754;5.994;2022-08-27T02:53:39;9.27;;;5.65;;
59127;SDS011;44912;52.754;5.994;2022-08-27T02:56:05;9.88;;;5.43;;
59127;SDS011;44912;52.754;5.994;2022-08-27T02:58:31;8.30;;;4.72;;
59127;SDS011;44912;52.754;5.994;2022-08-27T03:01:00;8.63;;;5.25;;
59127;SDS011;44912;52.754;5.994;2022-08-27T03:03:30;9.82;;;6.22;;
59127;SDS011;44912;52.754;5.994;2022-08-27T03:05:56;9.73;;;6.00;;
59127;SDS011;44912;52.754;5.994;2022-08-27T03:08:24;11.73;;;7.00;;
59127;SDS011;44912;52.754;5.994;2022-08-27T03:10:50;11.57;;;6.72;;
59127;SDS011;44912;52.754;5.994;2022-08-27T03:13:17;10.38;;;6.47;;
59127;SDS011;44912;52.754;5.994;2022-08-27T03:15:43;10.02;;;6.22;;
59127;SDS011;44912;52.754;5.994;2022-08-27T03:18:09;9.70;;;6.50;;
59127;SDS011;44912;52.754;5.994;2022-08-27T03:23:14;9.43;;;5.80;;
59127;SDS011;44912;52.754;5.994;2022-08-27T03:25:42;9.85;;;6.43;;
59127;SDS011;44912;52.754;5.994;2022-08-27T03:28:09;10.35;;;6.13;;
59127;SDS011;44912;52.754;5.994;2022-08-27T03:30:38;9.38;;;5.85;;
59127;SDS011;44912;52.754;5.994;2022-08-27T03:33:04;9.57;;;6.30;;
59127;SDS011;44912;52.754;5.994;2022-08-27T03:35:29;14.02;;;6.85;;
59127;SDS011;44912;52.754;5.994;2022-08-27T03:37:55;12.63;;;6.38;;
59127;SDS011;44912;52.754;5.994;2022-08-27T03:40:20;11.00;;;6.78;;
59127;SDS011;44912;52.754;5.994;2022-08-27T03:42:46;11.07;;;7.15;;
59127;SDS011;44912;52.754;5.994;2022-08-27T03:45:12;12.27;;;7.30;;
59127;SDS011;44912;52.754;5.994;2022-08-27T03:47:37;11.75;;;6.78;;
59127;SDS011;44912;52.754;5.994;2022-08-27T03:50:04;12.68;;;7.85;;
59127;SDS011;44912;52.754;5.994;2022-08-27T03:52:31;13.18;;;7.85;;
59127;SDS011;44912;52.754;5.994;2022-08-27T03:54:58;13.43;;;7.82;;
59127;SDS011;44912;52.754;5.994;2022-08-27T03:57:23;11.35;;;7.57;;
59127;SDS011;44912;52.754;5.994;2022-08-27T03:59:49;18.02;;;8.02;;
59127;SDS011;44912;52.754;5.994;2022-08-27T04:02:15;10.40;;;7.10;;
59127;SDS011;44912;52.754;5.994;2022-08-27T04:04:41;11.27;;;6.90;;
59127;SDS011;44912;52.754;5.994;2022-08-27T04:07:06;10.15;;;6.68;;
59127;SDS011;44912;52.754;5.994;2022-08-27T04:09:34;9.85;;;6.18;;
59127;SDS011;44912;52.754;5.994;2022-08-27T04:11:59;9.73;;;6.13;;
59127;SDS011;44912;52.754;5.994;2022-08-27T04:14:25;9.20;;;5.55;;
59127;SDS011;44912;52.754;5.994;2022-08-27T04:16:50;12.50;;;6.20;;
59127;SDS011;44912;52.754;5.994;2022-08-27T04:19:16;9.25;;;5.97;;
59127;SDS011;44912;52.754;5.994;2022-08-27T04:21:42;12.57;;;5.80;;
59127;SDS011;44912;52.754;5.994;2022-08-27T04:24:07;9.35;;;5.55;;
59127;SDS011;44912;52.754;5.994;2022-08-27T04:26:35;12.18;;;6.20;;
59127;SDS011;44912;52.754;5.994;2022-08-27T04:29:00;9.40;;;5.57;;
59127;SDS011;44912;52.754;5.994;2022-08-27T04:31:26;8.52;;;5.53;;
59127;SDS011;44912;52.754;5.994;2022-08-27T04:33:51;11.20;;;6.07;;
59127;SDS011;44912;52.754;5.994;2022-08-27T04:36:17;12.18;;;6.18;;
59127;SDS011;44912;52.754;5.994;2022-08-27T04:38:44;11.77;;;6.60;;
59127;SDS011;44912;52.754;5.994;2022-08-27T04:41:10;11.77;;;6.13;;
59127;SDS011;44912;52.754;5.994;2022-08-27T04:43:50;13.45;;;6.43;;
59127;SDS011;44912;52.754;5.994;2022-08-27T04:46:18;11.27;;;6.57;;
59127;SDS011;44912;52.754;5.994;2022-08-27T04:48:54;10.63;;;6.35;;
59127;SDS011;44912;52.754;5.994;2022-08-27T04:51:20;11.13;;;6.25;;
59127;SDS011;44912;52.754;5.994;2022-08-27T04:53:47;10.35;;;6.18;;
59127;SDS011;44912;52.754;5.994;2022-08-27T04:56:14;12.32;;;6.15;;
59127;SDS011;44912;52.754;5.994;2022-08-27T04:58:41;12.18;;;6.20;;
59127;SDS011;44912;52.754;5.994;2022-08-27T05:01:07;11.50;;;5.85;;
59127;SDS011;44912;52.754;5.994;2022-08-27T05:03:33;11.30;;;6.13;;
59127;SDS011;44912;52.754;5.994;2022-08-27T05:06:01;10.65;;;6.00;;
59127;SDS011;44912;52.754;5.994;2022-08-27T05:08:29;10.95;;;5.82;;
59127;SDS011;44912;52.754;5.994;2022-08-27T05:10:55;12.15;;;6.15;;
59127;SDS011;44912;52.754;5.994;2022-08-27T05:13:21;11.20;;;6.15;;
59127;SDS011;44912;52.754;5.994;2022-08-27T05:15:55;11.60;;;6.55;;
59127;SDS011;44912;52.754;5.994;2022-08-27T05:18:23;11.68;;;5.97;;
59127;SDS011;44912;52.754;5.994;2022-08-27T05:20:48;9.90;;;6.13;;
59127;SDS011;44912;52.754;5.994;2022-08-27T05:23:15;12.07;;;6.25;;
59127;SDS011;44912;52.754;5.994;2022-08-27T05:25:43;11.35;;;5.60;;
59127;SDS011;44912;52.754;5.994;2022-08-27T05:28:11;8.57;;;5.72;;
59127;SDS011;44912;52.754;5.994;2022-08-27T05:30:41;10.15;;;5.18;;
59127;SDS011;44912;52.754;5.994;2022-08-27T05:33:08;11.30;;;5.63;;
59127;SDS011;44912;52.754;5.994;2022-08-27T05:35:39;12.73;;;5.70;;
59127;SDS011;44912;52.754;5.994;2022-08-27T05:38:10;10.38;;;5.00;;
59127;SDS011;44912;52.754;5.994;2022-08-27T05:40:36;11.52;;;4.93;;
59127;SDS011;44912;52.754;5.994;2022-08-27T05:43:04;11.65;;;4.88;;
59127;SDS011;44912;52.754;5.994;2022-08-27T05:45:31;8.82;;;4.50;;
59127;SDS011;44912;52.754;5.994;2022-08-27T05:47:57;7.85;;;4.97;;
59127;SDS011;44912;52.754;5.994;2022-08-27T05:50:26;9.02;;;5.22;;
59127;SDS011;44912;52.754;5.994;2022-08-27T05:52:51;10.60;;;5.45;;
59127;SDS011;44912;52.754;5.994;2022-08-27T05:55:17;9.88;;;5.70;;
59127;SDS011;44912;52.754;5.994;2022-08-27T05:57:43;10.45;;;5.60;;
59127;SDS011;44912;52.754;5.994;2022-08-27T06:00:09;10.45;;;5.63;;
59127;SDS011;44912;52.754;5.994;2022-08-27T06:02:53;9.43;;;5.13;;
59127;SDS011;44912;52.754;5.994;2022-08-27T06:05:19;12.77;;;5.90;;
59127;SDS011;44912;52.754;5.994;2022-08-27T06:07:45;11.52;;;5.70;;
59127;SDS011;44912;52.754;5.994;2022-08-27T06:10:10;9.50;;;5.57;;
59127;SDS011;44912;52.754;5.994;2022-08-27T06:12:37;10.07;;;5.40;;
59127;SDS011;44912;52.754;5.994;2022-08-27T06:15:03;10.80;;;6.05;;
59127;SDS011;44912;52.754;5.994;2022-08-27T06:17:29;13.52;;;5.00;;
59127;SDS011;44912;52.754;5.994;2022-08-27T06:19:55;10.20;;;4.70;;
59127;SDS011;44912;52.754;5.994;2022-08-27T06:22:21;9.48;;;4.78;;
59127;SDS011;44912;52.754;5.994;2022-08-27T06:24:47;9.13;;;4.20;;
59127;SDS011;44912;52.754;5.994;2022-08-27T06:27:15;10.43;;;4.18;;
59127;SDS011;44912;52.754;5.994;2022-08-27T06:29:42;11.27;;;4.40;;
59127;SDS011;44912;52.754;5.994;2022-08-27T06:32:08;10.68;;;4.53;;
59127;SDS011;44912;52.754;5.994;2022-08-27T06:34:34;9.50;;;3.67;;
59127;SDS011;44912;52.754;5.994;2022-08-27T06:37:00;8.05;;;3.88;;
59127;SDS011;44912;52.754;5.994;2022-08-27T06:39:26;10.60;;;3.30;;
59127;SDS011;44912;52.754;5.994;2022-08-27T06:41:52;8.55;;;3.55;;
59127;SDS011;44912;52.754;5.994;2022-08-27T06:44:18;9.63;;;3.50;;
59127;SDS011;44912;52.754;5.994;2022-08-27T06:46:44;9.45;;;3.15;;
59127;SDS011;44912;52.754;5.994;2022-08-27T06:49:10;6.13;;;2.65;;
59127;SDS011;44912;52.754;5.994;2022-08-27T06:51:37;8.15;;;2.70;;
59127;SDS011;44912;52.754;5.994;2022-08-27T06:54:04;9.02;;;3.25;;
59127;SDS011;44912;52.754;5.994;2022-08-27T06:56:32;8.30;;;2.70;;
59127;SDS011;44912;52.754;5.994;2022-08-27T06:58:59;6.93;;;2.58;;
59127;SDS011;44912;52.754;5.994;2022-08-27T07:01:28;7.78;;;2.88;;
59127;SDS011;44912;52.754;5.994;2022-08-27T07:04:03;6.60;;;2.72;;
59127;SDS011;44912;52.754;5.994;2022-08-27T07:06:30;6.88;;;2.35;;
59127;SDS011;44912;52.754;5.994;2022-08-27T07:08:57;8.27;;;2.78;;
59127;SDS011;44912;52.754;5.994;2022-08-27T07:11:24;7.22;;;2.40;;
59127;SDS011;44912;52.754;5.994;2022-08-27T07:13:50;6.72;;;2.72;;
59127;SDS011;44912;52.754;5.994;2022-08-27T07:16:17;7.53;;;2.25;;
59127;SDS011;44912;52.754;5.994;2022-08-27T07:18:46;7.10;;;2.40;;
59127;SDS011;44912;52.754;5.994;2022-08-27T07:21:13;10.25;;;2.70;;
59127;SDS011;44912;52.754;5.994;2022-08-27T07:23:39;9.32;;;2.50;;
59127;SDS011;44912;52.754;5.994;2022-08-27T07:26:06;6.53;;;2.53;;
59127;SDS011;44912;52.754;5.994;2022-08-27T07:28:33;6.65;;;2.33;;
59127;SDS011;44912;52.754;5.994;2022-08-27T07:30:58;8.05;;;2.80;;
59127;SDS011;44912;52.754;5.994;2022-08-27T07:33:24;5.78;;;2.17;;
59127;SDS011;44912;52.754;5.994;2022-08-27T07:35:49;5.72;;;1.90;;
59127;SDS011;44912;52.754;5.994;2022-08-27T07:38:16;8.52;;;2.20;;
59127;SDS011;44912;52.754;5.994;2022-08-27T07:40:42;7.28;;;2.00;;
59127;SDS011;44912;52.754;5.994;2022-08-27T07:43:08;7.97;;;1.98;;
59127;SDS011;44912;52.754;5.994;2022-08-27T07:45:52;8.52;;;2.15;;
59127;SDS011;44912;52.754;5.994;2022-08-27T07:48:21;7.00;;;1.90;;
59127;SDS011;44912;52.754;5.994;2022-08-27T07:50:47;5.80;;;2.00;;
59127;SDS011;44912;52.754;5.994;2022-08-27T07:53:13;6.05;;;1.92;;
59127;SDS011;44912;52.754;5.994;2022-08-27T07:55:39;7.55;;;2.30;;
59127;SDS011;44912;52.754;5.994;2022-08-27T07:58:05;5.97;;;2.17;;
59127;SDS011;44912;52.754;5.994;2022-08-27T08:00:31;6.75;;;1.90;;
59127;SDS011;44912;52.754;5.994;2022-08-27T08:02:57;5.80;;;2.08;;
59127;SDS011;44912;52.754;5.994;2022-08-27T08:05:23;7.40;;;1.65;;
59127;SDS011;44912;52.754;5.994;2022-08-27T08:07:48;9.00;;;1.60;;
59127;SDS011;44912;52.754;5.994;2022-08-27T08:10:15;8.82;;;2.25;;
59127;SDS011;44912;52.754;5.994;2022-08-27T08:12:41;10.63;;;2.00;;
59127;SDS011;44912;52.754;5.994;2022-08-27T08:15:08;6.85;;;1.95;;
59127;SDS011;44912;52.754;5.994;2022-08-27T08:17:35;8.70;;;2.05;;
59127;SDS011;44912;52.754;5.994;2022-08-27T08:20:02;7.00;;;2.08;;
59127;SDS011;44912;52.754;5.994;2022-08-27T08:22:29;13.20;;;3.10;;
59127;SDS011;44912;52.754;5.994;2022-08-27T08:24:55;6.65;;;1.73;;
59127;SDS011;44912;52.754;5.994;2022-08-27T08:27:21;8.15;;;1.77;;
59127;SDS011;44912;52.754;5.994;2022-08-27T08:29:47;7.10;;;1.60;;
59127;SDS011;44912;52.754;5.994;2022-08-27T08:32:12;7.18;;;1.67;;
59127;SDS011;44912;52.754;5.994;2022-08-27T08:34:39;10.00;;;1.85;;
59127;SDS011;44912;52.754;5.994;2022-08-27T08:37:05;6.72;;;1.60;;
59127;SDS011;44912;52.754;5.994;2022-08-27T08:39:31;8.48;;;1.73;;
59127;SDS011;44912;52.754;5.994;2022-08-27T08:41:58;8.40;;;1.90;;
59127;SDS011;44912;52.754;5.994;2022-08-27T08:44:27;6.32;;;1.55;;
59127;SDS011;44912;52.754;5.994;2022-08-27T08:47:11;4.95;;;1.40;;
59127;SDS011;44912;52.754;5.994;2022-08-27T08:54:47;6.05;;;1.40;;
59127;SDS011;44912;52.754;5.994;2022-08-27T08:57:21;8.27;;;1.42;;
59127;SDS011;44912;52.754;5.994;2022-08-27T09:00:04;6.57;;;1.55;;
59127;SDS011;44912;52.754;5.994;2022-08-27T09:02:36;8.63;;;1.90;;
59127;SDS011;44912;52.754;5.994;2022-08-27T09:05:06;6.78;;;1.50;;
59127;SDS011;44912;52.754;5.994;2022-08-27T09:07:34;8.65;;;1.70;;
59127;SDS011;44912;52.754;5.994;2022-08-27T09:13:00;9.18;;;1.88;;
59127;SDS011;44912;52.754;5.994;2022-08-27T09:15:32;5.80;;;1.50;;
59127;SDS011;44912;52.754;5.994;2022-08-27T09:18:04;7.15;;;1.63;;
59127;SDS011;44912;52.754;5.994;2022-08-27T09:20:36;7.15;;;1.33;;
59127;SDS011;44912;52.754;5.994;2022-08-27T09:23:05;8.32;;;1.70;;
59127;SDS011;44912;52.754;5.994;2022-08-27T09:25:39;5.93;;;1.58;;
59127;SDS011;44912;52.754;5.994;2022-08-27T09:28:11;8.23;;;1.65;;
59127;SDS011;44912;52.754;5.994;2022-08-27T09:31:01;7.65;;;2.38;;
59127;SDS011;44912;52.754;5.994;2022-08-27T09:33:29;5.07;;;1.25;;
59127;SDS011;44912;52.754;5.994;2022-08-27T09:35:55;6.65;;;1.20;;
59127;SDS011;44912;52.754;5.994;2022-08-27T09:38:27;7.18;;;1.50;;
59127;SDS011;44912;52.754;5.994;2022-08-27T09:40:55;7.57;;;1.50;;
59127;SDS011;44912;52.754;5.994;2022-08-27T09:43:26;6.07;;;1.45;;
59127;SDS011;44912;52.754;5.994;2022-08-27T09:45:56;5.90;;;1.30;;
59127;SDS011;44912;52.754;5.994;2022-08-27T09:48:33;7.13;;;1.40;;
59127;SDS011;44912;52.754;5.994;2022-08-27T09:51:11;7.25;;;1.40;;
59127;SDS011;44912;52.754;5.994;2022-08-27T09:53:53;5.93;;;1.30;;
59127;SDS011;44912;52.754;5.994;2022-08-27T10:06:52;5.15;;;1.20;;
59127;SDS011;44912;52.754;5.994;2022-08-27T10:11:49;5.25;;;1.60;;
59127;SDS011;44912;52.754;5.994;2022-08-27T10:14:39;8.27;;;1.40;;
59127;SDS011;44912;52.754;5.994;2022-08-27T10:17:11;6.50;;;2.10;;
59127;SDS011;44912;52.754;5.994;2022-08-27T10:19:56;5.03;;;1.38;;
59127;SDS011;44912;52.754;5.994;2022-08-27T10:27:57;5.78;;;1.40;;
59127;SDS011;44912;52.754;5.994;2022-08-27T10:30:50;6.28;;;1.83;;
59127;SDS011;44912;52.754;5.994;2022-08-27T10:33:22;9.70;;;3.45;;
59127;SDS011;44912;52.754;5.994;2022-08-27T10:36:01;8.50;;;3.47;;
59127;SDS011;44912;52.754;5.994;2022-08-27T10:43:53;5.03;;;1.20;;
59127;SDS011;44912;52.754;5.994;2022-08-27T10:49:36;7.47;;;1.35;;
59127;SDS011;44912;52.754;5.994;2022-08-27T10:55:29;4.47;;;1.20;;
59127;SDS011;44912;52.754;5.994;2022-08-27T10:58:15;7.15;;;1.15;;
59127;SDS011;44912;52.754;5.994;2022-08-27T11:03:29;7.35;;;1.38;;
59127;SDS011;44912;52.754;5.994;2022-08-27T11:06:03;6.85;;;1.45;;
59127;SDS011;44912;52.754;5.994;2022-08-27T11:08:38;4.80;;;1.20;;
59127;SDS011;44912;52.754;5.994;2022-08-27T11:11:13;8.55;;;2.42;;
59127;SDS011;44912;52.754;5.994;2022-08-27T11:13:50;6.40;;;1.50;;
59127;SDS011;44912;52.754;5.994;2022-08-27T11:16:24;7.55;;;1.58;;
59127;SDS011;44912;52.754;5.994;2022-08-27T11:18:55;7.10;;;1.70;;
59127;SDS011;44912;52.754;5.994;2022-08-27T11:21:45;10.13;;;1.58;;
59127;SDS011;44912;52.754;5.994;2022-08-27T11:27:01;7.50;;;1.48;;
59127;SDS011;44912;52.754;5.994;2022-08-27T11:29:34;5.72;;;1.40;;
59127;SDS011;44912;52.754;5.994;2022-08-27T11:32:28;8.93;;;1.67;;
59127;SDS011;44912;52.754;5.994;2022-08-27T11:35:00;5.95;;;1.30;;
59127;SDS011;44912;52.754;5.994;2022-08-27T11:37:33;7.10;;;1.48;;
59127;SDS011;44912;52.754;5.994;2022-08-27T11:43:31;7.15;;;1.38;;
59127;SDS011;44912;52.754;5.994;2022-08-27T11:46:06;6.28;;;1.23;;
59127;SDS011;44912;52.754;5.994;2022-08-27T11:48:35;5.67;;;1.20;;
59127;SDS011;44912;52.754;5.994;2022-08-27T11:51:05;7.20;;;1.23;;
59127;SDS011;44912;52.754;5.994;2022-08-27T11:53:36;7.53;;;1.55;;
59127;SDS011;44912;52.754;5.994;2022-08-27T11:56:14;6.10;;;1.40;;
59127;SDS011;44912;52.754;5.994;2022-08-27T11:58:52;5.82;;;1.20;;
59127;SDS011;44912;52.754;5.994;2022-08-27T12:01:25;7.18;;;1.67;;
59127;SDS011;44912;52.754;5.994;2022-08-27T12:06:27;5.97;;;0.90;;
59127;SDS011;44912;52.754;5.994;2022-08-27T12:09:05;6.97;;;1.20;;
59127;SDS011;44912;52.754;5.994;2022-08-27T12:11:40;8.93;;;1.60;;
59127;SDS011;44912;52.754;5.994;2022-08-27T12:14:40;5.13;;;1.20;;
59127;SDS011;44912;52.754;5.994;2022-08-27T12:20:10;6.10;;;1.20;;
59127;SDS011;44912;52.754;5.994;2022-08-27T12:26:17;5.88;;;1.00;;
59127;SDS011;44912;52.754;5.994;2022-08-27T12:28:45;6.30;;;1.27;;
59127;SDS011;44912;52.754;5.994;2022-08-27T12:31:14;5.45;;;1.10;;
59127;SDS011;44912;52.754;5.994;2022-08-27T12:33:47;7.75;;;1.17;;
59127;SDS011;44912;52.754;5.994;2022-08-27T12:36:17;4.43;;;1.00;;
59127;SDS011;44912;52.754;5.994;2022-08-27T12:38:53;6.90;;;1.55;;
59127;SDS011;44912;52.754;5.994;2022-08-27T12:44:04;5.70;;;1.00;;
59127;SDS011;44912;52.754;5.994;2022-08-27T12:46:31;3.72;;;0.90;;
59127;SDS011;44912;52.754;5.994;2022-08-27T12:49:10;10.13;;;1.10;;
59127;SDS011;44912;52.754;5.994;2022-08-27T12:51:36;7.15;;;1.27;;
59127;SDS011;44912;52.754;5.994;2022-08-27T13:05:04;7.90;;;1.50;;
59127;SDS011;44912;52.754;5.994;2022-08-27T13:07:32;4.18;;;1.02;;
59127;SDS011;44912;52.754;5.994;2022-08-27T13:10:14;6.30;;;1.25;;
59127;SDS011;44912;52.754;5.994;2022-08-27T13:12:58;4.47;;;1.10;;
59127;SDS011;44912;52.754;5.994;2022-08-27T13:15:32;8.30;;;1.38;;
59127;SDS011;44912;52.754;5.994;2022-08-27T13:17:59;4.47;;;0.90;;
59127;SDS011;44912;52.754;5.994;2022-08-27T13:20:26;4.68;;;0.98;;
59127;SDS011;44912;52.754;5.994;2022-08-27T13:22:52;5.28;;;1.17;;
59127;SDS011;44912;52.754;5.994;2022-08-27T13:27:55;4.75;;;0.93;;
59127;SDS011;44912;52.754;5.994;2022-08-27T13:30:31;5.15;;;1.23;;
59127;SDS011;44912;52.754;5.994;2022-08-27T13:32:59;4.60;;;0.85;;
59127;SDS011;44912;52.754;5.994;2022-08-27T13:35:25;4.55;;;1.00;;
59127;SDS011;44912;52.754;5.994;2022-08-27T13:37:52;7.20;;;1.33;;
59127;SDS011;44912;52.754;5.994;2022-08-27T13:40:25;6.63;;;1.60;;
59127;SDS011;44912;52.754;5.994;2022-08-27T13:43:06;5.95;;;1.20;;
59127;SDS011;44912;52.754;5.994;2022-08-27T13:45:38;5.80;;;1.30;;
59127;SDS011;44912;52.754;5.994;2022-08-27T13:48:05;4.57;;;1.13;;
59127;SDS011;44912;52.754;5.994;2022-08-27T13:50:32;6.95;;;1.58;;
59127;SDS011;44912;52.754;5.994;2022-08-27T13:53:04;7.22;;;1.65;;
59127;SDS011;44912;52.754;5.994;2022-08-27T13:55:51;6.75;;;1.30;;
59127;SDS011;44912;52.754;5.994;2022-08-27T13:58:23;6.80;;;1.40;;
59127;SDS011;44912;52.754;5.994;2022-08-27T14:00:51;5.90;;;1.20;;
59127;SDS011;44912;52.754;5.994;2022-08-27T14:03:32;4.25;;;1.08;;
59127;SDS011;44912;52.754;5.994;2022-08-27T14:06:00;5.90;;;1.20;;
59127;SDS011;44912;52.754;5.994;2022-08-27T14:08:31;6.80;;;1.25;;
59127;SDS011;44912;52.754;5.994;2022-08-27T14:11:06;6.73;;;1.10;;
59127;SDS011;44912;52.754;5.994;2022-08-27T14:13:41;5.57;;;0.93;;
59127;SDS011;44912;52.754;5.994;2022-08-27T14:16:30;6.75;;;1.00;;
59127;SDS011;44912;52.754;5.994;2022-08-27T14:19:09;4.40;;;0.90;;
59127;SDS011;44912;52.754;5.994;2022-08-27T14:21:36;6.43;;;1.08;;
59127;SDS011;44912;52.754;5.994;2022-08-27T14:24:03;4.45;;;0.82;;
59127;SDS011;44912;52.754;5.994;2022-08-27T14:26:30;5.20;;;0.85;;
59127;SDS011;44912;52.754;5.994;2022-08-27T14:28:56;5.45;;;1.05;;
59127;SDS011;44912;52.754;5.994;2022-08-27T14:31:22;9.15;;;1.13;;
59127;SDS011;44912;52.754;5.994;2022-08-27T14:33:49;6.75;;;1.10;;
59127;SDS011;44912;52.754;5.994;2022-08-27T14:36:18;5.13;;;1.20;;
59127;SDS011;44912;52.754;5.994;2022-08-27T14:38:45;6.18;;;1.20;;
59127;SDS011;44912;52.754;5.994;2022-08-27T14:41:13;4.75;;;0.73;;
59127;SDS011;44912;52.754;5.994;2022-08-27T14:43:39;5.82;;;1.00;;
59127;SDS011;44912;52.754;5.994;2022-08-27T14:46:05;8.23;;;1.30;;
59127;SDS011;44912;52.754;5.994;2022-08-27T14:48:35;8.75;;;1.70;;
59127;SDS011;44912;52.754;5.994;2022-08-27T14:51:02;7.07;;;1.00;;
59127;SDS011;44912;52.754;5.994;2022-08-27T14:53:36;4.30;;;1.02;;
59127;SDS011;44912;52.754;5.994;2022-08-27T14:56:01;5.43;;;1.05;;
59127;SDS011;44912;52.754;5.994;2022-08-27T14:58:27;7.50;;;1.30;;
59127;SDS011;44912;52.754;5.994;2022-08-27T15:00:53;4.88;;;1.30;;
59127;SDS011;44912;52.754;5.994;2022-08-27T15:03:20;6.68;;;1.20;;
59127;SDS011;44912;52.754;5.994;2022-08-27T15:05:49;6.38;;;1.48;;
59127;SDS011;44912;52.754;5.994;2022-08-27T15:08:19;7.53;;;1.30;;
59127;SDS011;44912;52.754;5.994;2022-08-27T15:10:48;7.32;;;1.60;;
59127;SDS011;44912;52.754;5.994;2022-08-27T15:13:14;8.50;;;1.55;;
59127;SDS011;44912;52.754;5.994;2022-08-27T15:15:39;5.53;;;1.20;;
59127;SDS011;44912;52.754;5.994;2022-08-27T15:18:05;6.88;;;1.50;;
59127;SDS011;44912;52.754;5.994;2022-08-27T15:20:31;6.22;;;1.15;;
59127;SDS011;44912;52.754;5.994;2022-08-27T15:22:57;6.15;;;1.50;;
59127;SDS011;44912;52.754;5.994;2022-08-27T15:25:23;9.30;;;1.45;;
59127;SDS011;44912;52.754;5.994;2022-08-27T15:27:50;6.95;;;1.48;;
59127;SDS011;44912;52.754;5.994;2022-08-27T15:30:16;6.10;;;1.55;;
59127;SDS011;44912;52.754;5.994;2022-08-27T15:32:48;7.15;;;1.70;;
59127;SDS011;44912;52.754;5.994;2022-08-27T15:35:19;9.75;;;1.67;;
59127;SDS011;44912;52.754;5.994;2022-08-27T15:37:47;5.70;;;1.40;;
59127;SDS011;44912;52.754;5.994;2022-08-27T15:40:14;7.45;;;1.67;;
59127;SDS011;44912;52.754;5.994;2022-08-27T15:42:41;5.65;;;1.20;;
59127;SDS011;44912;52.754;5.994;2022-08-27T15:45:07;8.23;;;1.50;;
59127;SDS011;44912;52.754;5.994;2022-08-27T15:47:35;4.15;;;1.42;;
59127;SDS011;44912;52.754;5.994;2022-08-27T15:50:00;4.75;;;1.20;;
59127;SDS011;44912;52.754;5.994;2022-08-27T15:52:26;4.82;;;1.33;;
59127;SDS011;44912;52.754;5.994;2022-08-27T15:54:52;5.70;;;1.45;;
59127;SDS011;44912;52.754;5.994;2022-08-27T15:57:18;5.65;;;1.38;;
59127;SDS011;44912;52.754;5.994;2022-08-27T15:59:44;8.82;;;1.75;;
59127;SDS011;44912;52.754;5.994;2022-08-27T16:02:15;8.70;;;1.40;;
59127;SDS011;44912;52.754;5.994;2022-08-27T16:04:44;8.82;;;1.70;;
59127;SDS011;44912;52.754;5.994;2022-08-27T16:07:10;6.25;;;1.30;;
59127;SDS011;44912;52.754;5.994;2022-08-27T16:09:36;8.07;;;1.52;;
59127;SDS011;44912;52.754;5.994;2022-08-27T16:12:01;7.40;;;2.00;;